KSNA/SNA METAR and TAF weather

Enter ICAO airport designator
Station Type Date Time Source
KSNA METAR 2022/06/28 07:53 UTC NOAA

KSNA 280753Z 00000KT 10SM CLR 21/16 A2999 RMK AO2 SLP155 T02060156 402830183


Station Type Date Time Source
KSNA Decoded METAR 2022/06/28 07:53 UTC NOAA

SANTA ANA WAYNE ORANGE CTY, CA, United States (KSNA) 33-41N 117-52W 15M
Jun 28, 2022 - 03:53 AM EDT / 2022.06.28 0753 UTC
Wind: Calm:0
Visibility: 10 mile(s):0
Sky conditions: clear
Temperature: 69.1 F (20.6 C)
Dew Point: 60.1 F (15.6 C)
Relative Humidity: 73%
Pressure (altimeter): 29.99 in. Hg (1015 hPa)
ob: KSNA 280753Z 00000KT 10SM CLR 21/16 A2999 RMK AO2 SLP155 T02060156 402830183
cycle: 8

Station Type Date Time Source
KSNA TAF 2022/06/28 06:22 UTC NOAA

TAF KSNA 280520Z 2806/2906 VRB04KT P6SM FEW150
FM281100 VRB03KT 5SM BR BKN006
TEMPO 2812/2814 2SM BR OVC004
FM281500 VRB04KT 6SM BR FEW007
FM281900 22008KT P6SM FEW010
FM290200 VRB04KT P6SM FEW010

Example: see airport list